Startpagina
METAR-TAF:

METAR-TAF

Vliegvelden :

Luchthaven Ouagadougou Internationaal

Ouagadougou, Burkina Faso

breedte: 12-21N, lengte: 001-31W, hoogte: 316 m

Actueel weer

Dit bericht is 42 minuten geleden gemaakt, om 13:00 UTC
Wind 5 kt uit variabele richting met uitschieters tot 17 kt
Temperatuur 41°C
Vochtigheid 10%
Druk 1009 hPa
Zicht: 6000 m

METAR: DFFD 261300Z VRB05G17KT 6000 NSC 41/03 Q1009 NOSIG

Tijdstip: 13:42 (13:42 UTC)

Verwachting

Dit bericht is 2 uur en het 42 minuten geleden gemaakt, om 11:00 UTC
Verwachting geldig van 26 om 12 UTC tot 27 om 18 UTC
Wind 8 kt uit variabele richting
Zicht 10 km of meer
Weinig wolken op 2600 ft
Kans 30% :
Tijdelijke
van 26 om 15 UTC tot 27 om 02 UTC
Zicht: 4000 m
Verspreide wolken op 2600 ft
Weinig wolken op 4000 ft, Cumulonimbus.
onweer, regen

TAF: DFFD 261100Z 2612/2718 VRB08KT 9999 FEW026 PROB30 TEMPO 2615/2702 4000 TSRA SCT026 FEW040CB

Waarnemingen en weersverwachtingen van meer dan 4000 vliegvelden (METAR en TAF).

De beschikbare stations zijn de gele en rode punten op de kaart.

Ga met uw muis naar het station om de naam te zien.

Klik dan om waarnemingen en weersverwachtingen te zien.

kaart wijzigen: klik op de groene knoppen met een zwart kruis om in te zoomen, op de groene knop met een streepje om uit te zoomen of op de groene pijlen voor aangrenzende kaarten.


METAR-TAF: